Altenburg, Missouri
Current Conditions -  °F | °C
As of 10:27 AM on Friday 24 Oct 2014 (Local Time) from KMDH Reporting Station
Overcast Overcast  
Wind Chill: 16°   Ceiling: 1300
Heat Index: 16°   Visibility: 10mi
Dew Point: 11°   Wind: 5mph
Humidity: 72%   Direction: 260°W
Pressure: 30.14"   Gusts: NA
Location:  37.63°N, 89.59°W
Report Text: KMDH 241527Z 26004KT 10SM OVC013 16/11 A3014 RMK AO2 T01560106
Loading
Personal Weather Stations






























Interactive Weather Map
Tropical Storm Tracking
New forecast layout! Learn more

10-Day Weather Forecast

Advertisements
Track Severe Weather on mobile